Time;durP1;ratioP1;P1;durP2;ratioP2;P2;SDS_P1;SDS_P2;PMS_P1;PMS_P2;Temp;Humidity;BMP_temperature;BMP_pressure;BME280_temperature;BME280_humidity;BME280_pressure;Samples;Min_cycle;Max_cycle;Signal;HPM_P1;HPM_P2
2022/08/06 00:02:04;;;;;;;5.60;5.10;;;13.40;99.90;;;;;;5071898;28;20185;-66
2022/08/06 00:04:29;;;;;;;5.90;5.40;;;13.40;99.90;;;;;;5071360;28;20698;-64
2022/08/06 00:06:55;;;;;;;4.87;4.67;;;13.40;99.90;;;;;;5071870;28;20178;-64
2022/08/06 00:09:21;;;;;;;5.40;5.00;;;13.20;99.90;;;;;;5071318;28;20657;-64
2022/08/06 00:11:46;;;;;;;5.60;5.10;;;13.20;99.90;;;;;;5071576;28;20181;-64
2022/08/06 00:14:12;;;;;;;5.10;4.70;;;13.10;99.90;;;;;;5071168;28;20678;-65
2022/08/06 00:16:39;;;;;;;5.57;5.07;;;13.10;99.90;;;;;;5070464;28;20189;-65
2022/08/06 00:19:05;;;;;;;7.97;5.23;;;13.00;99.90;;;;;;5071459;28;20550;-65
2022/08/06 00:21:31;;;;;;;5.93;5.50;;;13.00;99.90;;;;;;5071333;28;20194;-65
2022/08/06 00:23:57;;;;;;;5.47;4.97;;;13.00;99.90;;;;;;5071168;28;20210;-65
2022/08/06 00:26:24;;;;;;;5.00;4.70;;;13.00;99.90;;;;;;5071646;28;20281;-63
2022/08/06 00:28:50;;;;;;;5.47;5.03;;;13.00;99.90;;;;;;5071298;28;20245;-66
2022/08/06 00:31:15;;;;;;;8.30;5.13;;;13.00;99.90;;;;;;5071392;28;20212;-65
2022/08/06 00:33:41;;;;;;;5.30;4.80;;;13.00;99.90;;;;;;5070839;28;20189;-64
2022/08/06 00:36:07;;;;;;;5.37;4.90;;;13.00;99.90;;;;;;5071287;28;20400;-65
2022/08/06 00:38:33;;;;;;;5.13;4.73;;;13.00;99.90;;;;;;5071358;28;20190;-66
2022/08/06 00:40:59;;;;;;;7.17;5.03;;;13.00;99.90;;;;;;5071251;28;20186;-65
2022/08/06 00:43:26;;;;;;;5.77;5.27;;;13.00;99.90;;;;;;5070787;28;20671;-65
2022/08/06 00:45:51;;;;;;;8.53;5.23;;;12.90;99.90;;;;;;5063201;28;20202;-65
2022/08/06 00:48:17;;;;;;;6.63;5.00;;;13.00;99.90;;;;;;5071316;28;20197;-66
2022/08/06 00:50:43;;;;;;;5.20;4.33;;;13.00;99.90;;;;;;5070959;28;20190;-65
2022/08/06 00:53:08;;;;;;;4.80;4.50;;;13.00;99.90;;;;;;5071119;28;20601;-65
2022/08/06 00:55:34;;;;;;;5.47;4.77;;;13.00;99.90;;;;;;5070935;28;20247;-66
2022/08/06 00:58:00;;;;;;;7.97;5.27;;;13.00;99.90;;;;;;5071243;28;20178;-65
2022/08/06 01:00:25;;;;;;;5.60;4.90;;;13.00;99.90;;;;;;5071534;28;20189;-65
2022/08/06 01:02:51;;;;;;;5.23;4.77;;;13.00;99.90;;;;;;5070963;28;20202;-65
2022/08/06 01:05:17;;;;;;;6.23;5.50;;;13.00;99.90;;;;;;5071052;28;20197;-65
2022/08/06 01:07:43;;;;;;;5.83;5.30;;;12.90;99.90;;;;;;5070881;28;20189;-65
2022/08/06 01:10:09;;;;;;;4.90;4.60;;;12.90;99.90;;;;;;5071087;28;20320;-65
2022/08/06 01:12:35;;;;;;;5.30;4.90;;;12.90;99.90;;;;;;5070828;28;20261;-65
2022/08/06 01:15:00;;;;;;;5.43;4.97;;;12.80;99.90;;;;;;5070512;28;20324;-64
2022/08/06 01:17:41;;;;;;;6.10;4.90;;;12.80;99.90;;;;;;5071124;28;20220;-64
2022/08/06 01:20:44;;;;;;;5.50;5.07;;;12.80;99.90;;;;;;5063690;28;20197;-64
2022/08/06 01:23:31;;;;;;;6.27;5.33;;;12.70;99.90;;;;;;5064081;28;20247;-66
2022/08/06 01:26:08;;;;;;;7.63;5.13;;;12.60;99.90;;;;;;5070714;28;20202;-65
2022/08/06 01:29:12;;;;;;;5.27;4.77;;;12.60;99.90;;;;;;5073268;28;20263;-65
2022/08/06 01:31:51;;;;;;;4.97;4.63;;;12.60;99.90;;;;;;5074249;28;20198;-62
2022/08/06 01:34:23;;;;;;;5.30;5.00;;;12.60;99.90;;;;;;5074155;28;20181;-63
2022/08/06 01:37:11;;;;;;;4.97;4.70;;;12.50;99.90;;;;;;5074325;28;20232;-63
2022/08/06 01:39:39;;;;;;;5.63;4.97;;;12.50;99.90;;;;;;5074657;28;20185;-64
2022/08/06 01:42:05;;;;;;;5.50;5.13;;;12.40;99.90;;;;;;5074166;28;20323;-63
2022/08/06 01:44:38;;;;;;;5.00;4.60;;;12.50;99.90;;;;;;5074001;28;20266;-64
2022/08/06 01:47:08;;;;;;;5.73;5.33;;;12.40;99.90;;;;;;5074106;28;20212;-64
2022/08/06 01:49:37;;;;;;;5.70;5.20;;;12.50;99.90;;;;;;5074229;28;20292;-64
2022/08/06 01:52:05;;;;;;;5.50;5.03;;;12.40;99.90;;;;;;5074270;28;20803;-63
2022/08/06 01:54:35;;;;;;;9.00;4.93;;;12.40;99.90;;;;;;5073795;28;20296;-63
2022/08/06 01:57:02;;;;;;;8.40;5.20;;;12.40;99.90;;;;;;5074021;28;20182;-64
2022/08/06 01:59:33;;;;;;;5.73;5.17;;;12.40;99.90;;;;;;5074212;28;20189;-64
2022/08/06 02:02:01;;;;;;;5.97;5.47;;;12.30;99.90;;;;;;5073974;28;20186;-65
2022/08/06 02:04:30;;;;;;;5.83;5.47;;;12.30;99.90;;;;;;5073599;28;20552;-65
2022/08/06 02:06:58;;;;;;;6.20;5.33;;;12.30;99.90;;;;;;5073854;28;20186;-64
2022/08/06 02:09:26;;;;;;;5.63;5.20;;;12.30;99.90;;;;;;5074103;28;20174;-65
2022/08/06 02:12:11;;;;;;;5.83;5.40;;;12.30;99.90;;;;;;5073583;28;20239;-64
2022/08/06 02:14:45;;;;;;;5.93;5.53;;;12.30;99.90;;;;;;5068663;28;20202;-64
2022/08/06 02:17:13;;;;;;;5.53;5.13;;;12.20;99.90;;;;;;5073644;28;20185;-64
2022/08/06 02:19:45;;;;;;;6.70;6.00;;;12.20;99.90;;;;;;5073974;28;20555;-64
2022/08/06 02:22:11;;;;;;;6.20;5.53;;;12.20;99.90;;;;;;5073564;28;20576;-65
2022/08/06 02:24:38;;;;;;;6.83;5.73;;;12.20;99.90;;;;;;5073423;28;20201;-65
2022/08/06 02:27:05;;;;;;;6.67;6.00;;;12.20;99.90;;;;;;5073711;28;20540;-65
2022/08/06 02:29:31;;;;;;;5.87;5.37;;;12.20;99.90;;;;;;5073607;28;20299;-64
2022/08/06 02:31:57;;;;;;;6.50;5.87;;;12.20;99.90;;;;;;5073478;28;20190;-63
2022/08/06 02:34:22;;;;;;;6.47;5.77;;;12.20;99.90;;;;;;5073028;28;20280;-64
2022/08/06 02:36:57;;;;;;;10.27;5.93;;;12.10;99.90;;;;;;5073375;28;20190;-63
2022/08/06 02:39:26;;;;;;;6.30;5.63;;;12.10;99.90;;;;;;5072159;28;20193;-64
2022/08/06 02:42:15;;;;;;;5.60;5.20;;;12.00;99.90;;;;;;5073528;28;20250;-65
2022/08/06 02:45:05;;;;;;;5.80;5.30;;;12.00;99.90;;;;;;5067202;28;20240;-64
2022/08/06 02:47:39;;;;;;;6.67;6.17;;;12.00;99.90;;;;;;5065982;28;20248;-64
2022/08/06 02:50:08;;;;;;;6.77;6.10;;;12.00;99.90;;;;;;5072830;28;20181;-64
2022/08/06 02:52:41;;;;;;;10.13;6.00;;;12.00;99.90;;;;;;5073075;28;20182;-64
2022/08/06 02:55:11;;;;;;;7.47;6.77;;;11.90;99.90;;;;;;5072546;28;20208;-64
2022/08/06 02:57:40;;;;;;;9.40;7.50;;;12.00;99.90;;;;;;5073002;28;20181;-65
2022/08/06 03:00:08;;;;;;;8.10;6.73;;;12.00;99.90;;;;;;5072759;28;20182;-65
2022/08/06 03:02:37;;;;;;;10.40;7.13;;;12.00;99.90;;;;;;5072244;28;20175;-65
2022/08/06 03:05:08;;;;;;;8.27;7.43;;;12.00;99.90;;;;;;5072475;28;20197;-64
2022/08/06 03:07:35;;;;;;;10.30;8.03;;;12.00;99.90;;;;;;5064873;28;20296;-65
2022/08/06 03:10:02;;;;;;;8.87;7.77;;;11.90;99.90;;;;;;5072790;28;20204;-65
2022/08/06 03:12:28;;;;;;;10.13;7.20;;;12.00;99.90;;;;;;5072657;28;20178;-64
2022/08/06 03:14:55;;;;;;;8.90;6.97;;;11.90;99.90;;;;;;5072389;28;20201;-65
2022/08/06 03:17:23;;;;;;;8.17;7.40;;;11.90;99.90;;;;;;5072368;28;20166;-65
2022/08/06 03:19:50;;;;;;;8.83;7.77;;;11.90;99.90;;;;;;5072488;28;20253;-65
2022/08/06 03:22:18;;;;;;;8.93;7.23;;;11.80;99.90;;;;;;5072449;28;20196;-63
2022/08/06 03:24:45;;;;;;;9.50;7.37;;;11.80;99.90;;;;;;5071842;28;20201;-64
2022/08/06 03:27:11;;;;;;;9.40;7.27;;;11.80;99.90;;;;;;5072433;28;20170;-65
2022/08/06 03:29:40;;;;;;;7.13;6.37;;;11.70;99.90;;;;;;5072027;28;20177;-65
2022/08/06 03:32:08;;;;;;;10.07;6.40;;;11.70;99.90;;;;;;5072365;28;20531;-64
2022/08/06 03:34:35;;;;;;;8.93;6.73;;;11.70;99.90;;;;;;5071604;28;20198;-65
2022/08/06 03:37:03;;;;;;;8.90;6.43;;;11.70;99.90;;;;;;5072295;28;20174;-65
2022/08/06 03:39:32;;;;;;;6.97;6.37;;;11.60;99.90;;;;;;5071705;28;20667;-63
2022/08/06 03:41:57;;;;;;;10.70;6.87;;;11.60;99.90;;;;;;5072202;28;20177;-65
2022/08/06 03:44:23;;;;;;;11.17;7.13;;;11.60;99.90;;;;;;5071484;28;20194;-65
2022/08/06 03:47:05;;;;;;;8.10;6.57;;;11.60;99.90;;;;;;5071943;28;20188;-64
2022/08/06 03:49:50;;;;;;;7.20;6.60;;;11.50;99.90;;;;;;5071760;28;20176;-64
2022/08/06 03:52:25;;;;;;;6.53;6.07;;;11.40;99.90;;;;;;5071901;28;20647;-65
2022/08/06 03:54:54;;;;;;;10.63;7.30;;;11.40;99.90;;;;;;5071426;28;20364;-64
2022/08/06 03:57:25;;;;;;;6.80;6.20;;;11.30;99.90;;;;;;5071869;28;20170;-65
2022/08/06 03:59:58;;;;;;;9.13;6.50;;;11.30;99.90;;;;;;5064512;28;20602;-64
2022/08/06 04:02:28;;;;;;;7.93;7.13;;;11.30;99.90;;;;;;5071666;28;20231;-64
2022/08/06 04:04:54;;;;;;;6.77;6.30;;;11.30;99.90;;;;;;5071316;28;20197;-65
2022/08/06 04:07:20;;;;;;;7.20;6.60;;;11.30;99.90;;;;;;5071477;28;20226;-65
2022/08/06 04:09:46;;;;;;;7.90;6.73;;;11.30;99.90;;;;;;5071339;28;20633;-66
2022/08/06 04:12:13;;;;;;;7.53;6.93;;;11.30;99.90;;;;;;5071705;28;20261;-65
2022/08/06 04:14:38;;;;;;;7.77;7.07;;;11.30;99.90;;;;;;5070979;28;20195;-65
2022/08/06 04:17:06;;;;;;;7.50;7.00;;;11.30;99.90;;;;;;5071455;28;20761;-64
2022/08/06 04:19:33;;;;;;;7.47;6.83;;;11.40;99.90;;;;;;5071182;28;20201;-64
2022/08/06 04:21:59;;;;;;;7.93;7.23;;;11.30;99.90;;;;;;5071623;28;20170;-63
2022/08/06 04:24:25;;;;;;;7.57;6.97;;;11.30;99.90;;;;;;5071284;28;20289;-64
2022/08/06 04:26:53;;;;;;;6.63;6.23;;;11.30;99.90;;;;;;5071171;28;20568;-64
2022/08/06 04:29:21;;;;;;;7.47;6.57;;;11.40;99.90;;;;;;5071468;28;20663;-62
2022/08/06 04:31:49;;;;;;;7.60;7.00;;;11.40;99.90;;;;;;5071190;28;20568;-64
2022/08/06 04:34:20;;;;;;;7.83;7.13;;;11.40;99.90;;;;;;5070897;28;20202;-61
2022/08/06 04:36:46;;;;;;;7.13;6.40;;;11.50;99.90;;;;;;5071736;28;20186;-63
2022/08/06 04:39:12;;;;;;;7.60;7.10;;;11.50;99.90;;;;;;5071282;28;20265;-63
2022/08/06 04:41:38;;;;;;;7.50;6.80;;;11.50;99.90;;;;;;5070953;28;20272;-64
2022/08/06 04:44:04;;;;;;;10.30;8.33;;;11.50;99.90;;;;;;5071014;28;20706;-65
2022/08/06 04:46:30;;;;;;;8.13;7.33;;;11.60;99.90;;;;;;5071127;28;20559;-64
2022/08/06 04:48:56;;;;;;;7.43;6.93;;;11.70;99.90;;;;;;5070942;28;20724;-64
2022/08/06 04:51:24;;;;;;;8.37;7.40;;;11.70;99.90;;;;;;5071085;28;20175;-63
2022/08/06 04:53:50;;;;;;;8.00;7.13;;;11.90;99.90;;;;;;5070564;28;20178;-64
2022/08/06 04:56:16;;;;;;;8.53;7.47;;;12.00;99.90;;;;;;5071093;28;20558;-64
2022/08/06 04:58:41;;;;;;;8.20;7.13;;;12.00;99.90;;;;;;5070895;28;20295;-64
2022/08/06 05:01:07;;;;;;;7.40;6.67;;;12.10;99.90;;;;;;5071069;28;20697;-64
2022/08/06 05:03:33;;;;;;;6.80;6.20;;;12.20;99.90;;;;;;5073917;28;20194;-64
2022/08/06 05:06:22;;;;;;;8.63;7.83;;;12.20;99.90;;;;;;5075229;28;20264;-65
2022/08/06 05:08:53;;;;;;;7.70;7.00;;;12.30;99.90;;;;;;5074949;28;20209;-65
2022/08/06 05:11:22;;;;;;;7.40;6.70;;;12.40;99.90;;;;;;5075084;28;20174;-65
2022/08/06 05:13:52;;;;;;;7.03;6.40;;;12.40;99.90;;;;;;5074454;28;20261;-65
2022/08/06 05:16:19;;;;;;;7.47;6.70;;;12.50;99.90;;;;;;5075210;28;20296;-65
2022/08/06 05:18:59;;;;;;;8.73;7.43;;;12.60;99.90;;;;;;5074566;28;20173;-66
2022/08/06 05:21:30;;;;;;;8.73;7.30;;;12.80;99.90;;;;;;5069018;28;20174;-66
2022/08/06 05:23:56;;;;;;;9.17;6.30;;;12.80;99.90;;;;;;5074243;28;20208;-64
2022/08/06 05:26:23;;;;;;;9.77;6.60;;;12.90;99.90;;;;;;5073501;28;20240;-66
2022/08/06 05:28:49;;;;;;;6.90;6.37;;;13.00;99.90;;;;;;5074427;28;20178;-66
2022/08/06 05:31:15;;;;;;;9.50;6.67;;;13.10;99.90;;;;;;5074730;28;20177;-66
2022/08/06 05:33:41;;;;;;;7.20;6.50;;;13.20;99.90;;;;;;5074398;28;20189;-65
2022/08/06 05:36:09;;;;;;;7.50;6.90;;;13.20;99.90;;;;;;5074239;28;20233;-67
2022/08/06 05:38:37;;;;;;;7.70;7.00;;;13.30;99.90;;;;;;5074507;28;20190;-66
2022/08/06 05:41:05;;;;;;;7.03;6.43;;;13.40;99.90;;;;;;5074601;28;20268;-65
2022/08/06 05:43:31;;;;;;;6.83;6.33;;;13.50;99.90;;;;;;5074137;28;20587;-66
2022/08/06 05:46:00;;;;;;;7.80;7.17;;;13.60;99.90;;;;;;5074562;28;20213;-65
2022/08/06 05:48:30;;;;;;;7.07;6.57;;;13.80;99.90;;;;;;5074340;28;20670;-65
2022/08/06 05:51:32;;;;;;;6.90;6.30;;;14.00;99.90;;;;;;5074336;28;20185;-64
2022/08/06 05:54:05;;;;;;;7.33;6.20;;;14.40;99.90;;;;;;5066395;28;20534;-65
2022/08/06 05:56:37;;;;;;;8.07;5.83;;;14.80;99.90;;;;;;5073338;28;20224;-65
2022/08/06 05:59:32;;;;;;;5.80;5.40;;;15.20;99.90;;;;;;5074067;28;20166;-64
2022/08/06 06:01:58;;;;;;;7.73;5.40;;;15.60;99.90;;;;;;5067767;28;20285;-64
2022/08/06 06:04:25;;;;;;;6.17;5.47;;;16.00;99.90;;;;;;5073904;28;20210;-65
2022/08/06 06:06:50;;;;;;;6.13;5.27;;;16.10;99.90;;;;;;5074459;28;20257;-64
2022/08/06 06:09:16;;;;;;;8.67;5.90;;;16.30;99.90;;;;;;5074236;28;20249;-65
2022/08/06 06:11:42;;;;;;;12.50;5.97;;;16.60;99.90;;;;;;5074098;28;20287;-65
2022/08/06 06:14:28;;;;;;;5.97;5.40;;;16.80;99.90;;;;;;5073875;28;20253;-65
2022/08/06 06:17:17;;;;;;;6.03;5.50;;;17.20;99.90;;;;;;5073777;28;20198;-65
2022/08/06 06:19:42;;;;;;;6.03;5.50;;;17.70;99.90;;;;;;5073685;28;20546;-65
2022/08/06 06:22:28;;;;;;;5.47;4.93;;;18.10;99.90;;;;;;5074058;28;20186;-64
2022/08/06 06:25:19;;;;;;;5.27;4.93;;;18.60;99.90;;;;;;5066688;28;20208;-64
2022/08/06 06:27:47;;;;;;;8.23;6.33;;;19.00;99.90;;;;;;5074438;28;20175;-66
2022/08/06 06:31:02;;;;;;;6.67;5.03;;;19.50;99.90;;;;;;5074396;28;20250;-65
2022/08/06 06:33:50;;;;;;;5.67;4.80;;;20.10;99.90;;;;;;5067493;28;20202;-66
2022/08/06 06:36:28;;;;;;;6.07;4.78;;;20.80;99.90;;;;;;5072150;28;20706;-66
2022/08/06 06:39:21;;;;;;;7.88;3.85;;;21.30;99.90;;;;;;5073578;28;20182;-66
2022/08/06 06:42:05;;;;;;;6.30;4.25;;;21.70;99.90;;;;;;5072096;28;20334;-65
2022/08/06 06:44:40;;;;;;;9.02;4.50;;;21.70;99.90;;;;;;5072851;28;20210;-65
2022/08/06 06:47:18;;;;;;;7.97;4.60;;;21.60;99.90;;;;;;5073477;28;20638;-64
2022/08/06 06:49:51;;;;;;;9.35;4.65;;;21.60;99.90;;;;;;5073328;28;20609;-66
2022/08/06 06:52:19;;;;;;;5.20;4.70;;;22.00;99.90;;;;;;5073487;28;20227;-64
2022/08/06 06:54:48;;;;;;;6.97;5.28;;;22.00;99.90;;;;;;5072767;28;20266;-64
2022/08/06 06:57:20;;;;;;;5.85;4.20;;;22.10;99.90;;;;;;5073296;28;20182;-64
2022/08/06 06:59:50;;;;;;;8.00;4.22;;;22.30;99.90;;;;;;5072640;28;20259;-65
2022/08/06 07:02:20;;;;;;;5.88;4.30;;;22.70;99.90;;;;;;5073343;28;20182;-66
2022/08/06 07:04:48;;;;;;;8.85;5.25;;;23.00;99.90;;;;;;5072226;28;20221;-66
2022/08/06 07:07:16;;;;;;;5.47;4.38;;;23.40;99.90;;;;;;5073081;28;20166;-65
2022/08/06 07:09:43;;;;;;;5.35;4.60;;;23.80;99.90;;;;;;5072435;28;20179;-65
2022/08/06 07:12:12;;;;;;;5.35;4.40;;;24.20;99.90;;;;;;5065320;28;20172;-65
2022/08/06 07:14:40;;;;;;;4.03;3.60;;;24.60;99.90;;;;;;5072251;28;20210;-65
2022/08/06 07:17:07;;;;;;;6.30;4.50;;;25.00;99.90;;;;;;5072684;28;20178;-64
2022/08/06 07:19:33;;;;;;;5.00;3.97;;;24.80;99.90;;;;;;5071906;28;20202;-66
2022/08/06 07:22:00;;;;;;;5.15;3.97;;;24.90;99.90;;;;;;5072324;28;20236;-66
2022/08/06 07:24:30;;;;;;;5.25;3.75;;;25.10;99.90;;;;;;5072176;28;20311;-66
2022/08/06 07:26:58;;;;;;;4.45;3.55;;;25.10;99.90;;;;;;5072072;28;20192;-66
2022/08/06 07:29:25;;;;;;;3.85;3.55;;;25.20;99.90;;;;;;5072279;28;20648;-65
2022/08/06 07:31:51;;;;;;;5.28;3.65;;;25.40;99.90;;;;;;5072619;28;20189;-65
2022/08/06 07:34:18;;;;;;;5.72;3.55;;;25.60;99.90;;;;;;5071815;28;20210;-64
2022/08/06 07:36:50;;;;;;;4.10;3.70;;;25.50;99.90;;;;;;5072222;28;20178;-64
2022/08/06 07:39:22;;;;;;;6.35;3.97;;;25.20;99.90;;;;;;5072111;28;20200;-66
2022/08/06 07:41:50;;;;;;;3.95;3.58;;;25.00;99.90;;;;;;5071119;28;20643;-65
2022/08/06 07:44:17;;;;;;;5.50;4.53;;;24.90;99.90;;;;;;5071675;28;20202;-64
2022/08/06 07:46:48;;;;;;;6.97;3.72;;;24.90;99.90;;;;;;5071975;28;20582;-64
2022/08/06 07:49:16;;;;;;;5.90;3.60;;;25.10;99.90;;;;;;5072608;28;20174;-65
2022/08/06 07:51:44;;;;;;;3.92;3.47;;;25.10;99.90;;;;;;5071892;28;20781;-64
2022/08/06 07:54:10;;;;;;;3.72;3.53;;;24.80;99.90;;;;;;5071872;28;20181;-64
2022/08/06 07:56:39;;;;;;;10.20;4.45;;;24.80;99.90;;;;;;5071859;28;20558;-64
2022/08/06 07:59:08;;;;;;;6.55;3.60;;;24.70;99.90;;;;;;5072158;28;20197;-65
2022/08/06 08:01:34;;;;;;;5.55;3.45;;;24.80;99.90;;;;;;5071587;28;20186;-64
2022/08/06 08:06:46;;;;;;;3.88;3.30;;;24.90;99.90;;;;;;5072570;28;20185;-63
2022/08/06 08:09:17;;;;;;;3.53;3.20;;;24.80;99.90;;;;;;5071733;28;20174;-63
2022/08/06 08:11:46;;;;;;;5.20;3.70;;;24.70;99.90;;;;;;5071840;28;21096;-64
2022/08/06 08:14:15;;;;;;;3.17;2.88;;;24.70;99.90;;;;;;5071345;28;20251;-64
2022/08/06 08:16:42;;;;;;;3.72;3.35;;;25.00;99.90;;;;;;5071454;28;20170;-63
2022/08/06 08:19:33;;;;;;;2.92;2.63;;;25.20;99.90;;;;;;5071668;28;20181;-64
2022/08/06 08:22:01;;;;;;;3.75;3.22;;;25.80;99.90;;;;;;5070777;28;20189;-64
2022/08/06 08:24:28;;;;;;;4.75;3.33;;;26.20;99.90;;;;;;5071302;28;20252;-65
2022/08/06 08:26:55;;;;;;;3.70;3.13;;;25.80;99.90;;;;;;5071433;28;20180;-64
2022/08/06 08:29:21;;;;;;;3.00;2.80;;;25.70;99.90;;;;;;5071166;28;20170;-63
2022/08/06 08:31:47;;;;;;;3.30;3.10;;;25.40;99.90;;;;;;5071282;28;20178;-64
2022/08/06 08:34:13;;;;;;;4.72;3.00;;;24.80;99.90;;;;;;5070926;28;20177;-64
2022/08/06 08:36:39;;;;;;;3.15;2.95;;;24.30;99.90;;;;;;5071104;28;20186;-64
2022/08/06 08:39:05;;;;;;;3.55;2.70;;;24.30;99.90;;;;;;5070954;28;20190;-63
2022/08/06 08:41:40;;;;;;;2.67;2.58;;;24.60;99.90;;;;;;5063448;28;20646;-64
2022/08/06 08:44:07;;;;;;;3.22;2.70;;;24.70;99.90;;;;;;5071180;28;20205;-64
2022/08/06 08:46:37;;;;;;;2.92;2.67;;;25.10;99.90;;;;;;5063256;28;20170;-64
2022/08/06 08:49:04;;;;;;;2.80;2.67;;;25.30;99.90;;;;;;5071394;28;20193;-63
2022/08/06 08:51:34;;;;;;;2.70;2.50;;;25.20;99.90;;;;;;5070911;28;20178;-65
2022/08/06 08:54:02;;;;;;;2.75;2.55;;;25.50;99.90;;;;;;5071231;28;20227;-65
2022/08/06 08:56:28;;;;;;;2.50;2.30;;;25.80;99.90;;;;;;5070908;28;20674;-64
2022/08/06 08:58:54;;;;;;;2.92;2.60;;;26.20;99.90;;;;;;5071214;28;20174;-64
2022/08/06 09:01:20;;;;;;;3.75;2.60;;;26.10;99.90;;;;;;5070980;28;20177;-64
2022/08/06 09:03:46;;;;;;;2.70;2.50;;;26.00;99.90;;;;;;5070458;28;20671;-64
2022/08/06 09:06:12;;;;;;;3.10;2.90;;;26.00;99.90;;;;;;5071239;28;20197;-63
2022/08/06 09:08:38;;;;;;;6.18;2.80;;;26.00;99.90;;;;;;5070792;28;20209;-64
2022/08/06 09:11:05;;;;;;;2.97;2.33;;;25.60;99.90;;;;;;5071003;28;20662;-64
2022/08/06 09:13:31;;;;;;;2.40;2.30;;;25.60;99.90;;;;;;5070815;28;20182;-64
2022/08/06 09:15:57;;;;;;;2.60;2.50;;;25.60;99.90;;;;;;5070732;28;20216;-64
2022/08/06 09:18:25;;;;;;;2.90;2.60;;;25.80;99.90;;;;;;5071419;28;20178;-64
2022/08/06 09:20:51;;;;;;;4.03;2.72;;;25.80;99.90;;;;;;5071148;28;20186;-64
2022/08/06 09:23:18;;;;;;;2.78;2.58;;;25.90;99.90;;;;;;5070580;28;20533;-63
2022/08/06 09:25:49;;;;;;;2.65;2.45;;;26.10;99.90;;;;;;5070774;28;20247;-64
2022/08/06 09:28:43;;;;;;;2.50;2.30;;;26.40;99.90;;;;;;5071021;28;20265;-65
2022/08/06 09:31:14;;;;;;;2.75;2.60;;;26.80;99.90;;;;;;5071425;28;20253;-64
2022/08/06 09:33:42;;;;;;;2.60;2.50;;;27.00;99.90;;;;;;5070528;28;20179;-64
2022/08/06 09:36:13;;;;;;;2.35;2.25;;;27.20;99.90;;;;;;5070797;28;20214;-65
2022/08/06 09:38:47;;;;;;;3.10;2.90;;;26.70;99.90;;;;;;5070680;28;20212;-64
2022/08/06 09:41:14;;;;;;;2.60;2.50;;;26.40;99.90;;;;;;5070873;28;20166;-64
2022/08/06 09:43:40;;;;;;;2.47;2.38;;;26.30;99.90;;;;;;5070185;28;20190;-64
2022/08/06 09:46:07;;;;;;;2.80;2.53;;;26.30;99.90;;;;;;5070743;28;20236;-64
2022/08/06 09:48:33;;;;;;;2.58;2.35;;;25.70;99.90;;;;;;5071783;28;20174;-64
2022/08/06 09:51:00;;;;;;;2.70;2.50;;;25.60;99.90;;;;;;5074590;28;20534;-64
2022/08/06 09:53:25;;;;;;;2.88;2.67;;;25.70;99.90;;;;;;5073797;28;20177;-64
2022/08/06 09:55:53;;;;;;;3.17;2.97;;;26.10;99.90;;;;;;5073858;28;20736;-65
2022/08/06 09:58:27;;;;;;;3.10;2.90;;;26.10;99.90;;;;;;5074259;28;20285;-64
2022/08/06 10:00:53;;;;;;;3.20;2.92;;;26.40;99.90;;;;;;5067257;28;20583;-65
2022/08/06 10:03:19;;;;;;;2.75;2.53;;;27.00;99.90;;;;;;5074105;28;20309;-64
2022/08/06 10:05:44;;;;;;;2.70;2.50;;;27.50;99.90;;;;;;5073769;28;20297;-64
2022/08/06 10:08:18;;;;;;;4.07;2.50;;;27.70;99.90;;;;;;5074658;28;20261;-65
2022/08/06 10:10:48;;;;;;;2.38;2.28;;;27.30;99.90;;;;;;5073880;28;20182;-63
2022/08/06 10:13:17;;;;;;;2.90;2.70;;;26.60;99.40;;;;;;5074137;28;20185;-64
2022/08/06 10:15:48;;;;;;;3.05;2.80;;;25.90;99.90;;;;;;5073220;28;20209;-64
2022/08/06 10:18:41;;;;;;;2.80;2.70;;;25.80;99.90;;;;;;5073939;28;20180;-64
2022/08/06 10:21:12;;;;;;;2.83;2.63;;;26.00;99.90;;;;;;5073859;28;20189;-65
2022/08/06 10:23:40;;;;;;;2.50;2.40;;;26.50;99.90;;;;;;5073100;28;20194;-64
2022/08/06 10:26:10;;;;;;;2.63;2.42;;;26.70;99.90;;;;;;5073856;28;20198;-64
2022/08/06 10:28:38;;;;;;;2.70;2.50;;;26.60;99.90;;;;;;5073492;28;20678;-63
2022/08/06 10:31:08;;;;;;;2.90;2.80;;;26.30;99.60;;;;;;5061510;28;20190;-63
2022/08/06 10:33:48;;;;;;;2.90;2.80;;;26.30;99.90;;;;;;5054064;28;20167;-65
2022/08/06 10:36:17;;;;;;;2.72;2.53;;;26.50;99.70;;;;;;5060375;28;20213;-63
2022/08/06 10:38:46;;;;;;;2.63;2.53;;;26.70;99.90;;;;;;5073189;28;20613;-65
2022/08/06 10:41:14;;;;;;;2.80;2.60;;;26.40;99.00;;;;;;5073721;28;20185;-64
2022/08/06 10:43:40;;;;;;;3.05;2.85;;;25.90;98.00;;;;;;5072567;28;20289;-63
2022/08/06 10:46:09;;;;;;;2.80;2.65;;;25.60;99.90;;;;;;5073320;28;20671;-63
2022/08/06 10:48:39;;;;;;;2.60;2.40;;;25.60;99.90;;;;;;5073257;28;20189;-64
2022/08/06 10:51:07;;;;;;;3.05;2.80;;;25.90;99.90;;;;;;5073171;28;20173;-64
2022/08/06 10:53:35;;;;;;;2.78;2.58;;;26.30;99.90;;;;;;5072917;28;20644;-64
2022/08/06 10:56:03;;;;;;;2.85;2.65;;;26.50;98.80;;;;;;5073560;28;20205;-64
2022/08/06 10:58:31;;;;;;;2.72;2.53;;;26.70;99.10;;;;;;5074000;28;20189;-65
2022/08/06 11:01:02;;;;;;;3.60;2.40;;;26.60;99.90;;;;;;5071984;28;20628;-64
2022/08/06 11:03:33;;;;;;;2.55;2.35;;;26.80;99.30;;;;;;5072783;28;20698;-64
2022/08/06 11:06:15;;;;;;;3.13;2.47;;;26.50;99.40;;;;;;5072664;28;20285;-64
2022/08/06 11:08:59;;;;;;;2.70;2.60;;;25.80;97.30;;;;;;5073120;28;20221;-65
2022/08/06 11:12:06;;;;;;;2.65;2.55;;;25.10;97.60;;;;;;5072781;28;20174;-64
2022/08/06 11:14:37;;;;;;;3.03;2.80;;;24.50;99.90;;;;;;5072512;28;20715;-64
2022/08/06 11:17:04;;;;;;;3.13;2.92;;;24.80;99.90;;;;;;5072569;28;20193;-66
2022/08/06 11:19:44;;;;;;;2.72;2.63;;;25.00;99.80;;;;;;5073127;28;20190;-65
2022/08/06 11:22:47;;;;;;;2.55;2.45;;;25.40;98.80;;;;;;5072610;28;20178;-65
2022/08/06 11:25:13;;;;;;;3.53;3.00;;;25.60;99.90;;;;;;5072056;28;20288;-64
2022/08/06 11:27:57;;;;;;;2.70;2.60;;;26.00;98.20;;;;;;5072264;28;20316;-65
2022/08/06 11:30:43;;;;;;;3.00;2.80;;;26.30;99.90;;;;;;5072412;28;20170;-65
2022/08/06 11:33:10;;;;;;;3.58;2.83;;;26.60;99.90;;;;;;5072278;28;20178;-64
2022/08/06 11:35:35;;;;;;;2.65;2.55;;;26.90;99.90;;;;;;5071755;28;20210;-64
2022/08/06 11:38:04;;;;;;;2.53;2.42;;;26.40;96.30;;;;;;5072059;28;20261;-65
2022/08/06 11:40:56;;;;;;;2.97;2.80;;;25.70;96.10;;;;;;5071963;28;20243;-65
2022/08/06 11:43:40;;;;;;;3.30;3.00;;;25.00;98.00;;;;;;5071730;28;20198;-64
2022/08/06 11:46:33;;;;;;;2.90;2.80;;;24.80;97.90;;;;;;5071990;28;20193;-65
2022/08/06 11:48:58;;;;;;;3.33;3.03;;;25.10;98.20;;;;;;5072431;28;20162;-64
2022/08/06 11:51:50;;;;;;;2.53;2.42;;;25.20;98.50;;;;;;5072640;28;20179;-64
2022/08/06 11:54:32;;;;;;;3.35;2.78;;;25.40;99.60;;;;;;5072101;28;20177;-65
2022/08/06 11:59:37;;;;;;;3.20;2.60;;;25.40;97.50;;;;;;5072236;28;20182;-65
2022/08/06 12:02:06;;;;;;;3.15;2.90;;;25.00;98.50;;;;;;5071994;28;20251;-65
2022/08/06 12:04:46;;;;;;;3.08;2.88;;;24.70;97.40;;;;;;5071196;28;20303;-66
2022/08/06 12:07:29;;;;;;;3.17;2.85;;;24.40;98.10;;;;;;5071814;28;20648;-65
2022/08/06 12:10:02;;;;;;;2.53;2.33;;;24.70;99.10;;;;;;5071345;28;20666;-65
2022/08/06 12:12:42;;;;;;;3.28;2.75;;;24.60;98.10;;;;;;5071609;28;20178;-65
2022/08/06 12:15:16;;;;;;;2.60;2.40;;;24.30;99.80;;;;;;5071077;28;20194;-65
2022/08/06 12:17:54;;;;;;;2.53;2.42;;;24.50;99.80;;;;;;5071333;28;20177;-64
2022/08/06 12:20:31;;;;;;;2.95;2.70;;;25.10;99.90;;;;;;5071725;28;20761;-65
2022/08/06 12:23:04;;;;;;;3.00;2.80;;;25.90;97.70;;;;;;5071231;28;20182;-65
2022/08/06 12:25:38;;;;;;;2.70;2.50;;;26.70;99.90;;;;;;5071059;28;20289;-65
2022/08/06 12:28:07;;;;;;;2.80;2.65;;;27.20;99.90;;;;;;5071372;28;20201;-65
2022/08/06 12:30:44;;;;;;;2.45;2.35;;;27.10;95.60;;;;;;5071267;28;20180;-65
2022/08/06 12:33:10;;;;;;;2.60;2.40;;;27.40;93.90;;;;;;5071150;28;20307;-66
2022/08/06 12:35:47;;;;;;;2.50;2.40;;;27.70;95.90;;;;;;5070675;28;20583;-64
2022/08/06 12:38:12;;;;;;;2.88;2.70;;;27.90;95.20;;;;;;5071105;28;20225;-64
2022/08/06 12:40:38;;;;;;;3.15;2.95;;;28.40;94.40;;;;;;5071104;28;20254;-64
2022/08/06 12:43:04;;;;;;;2.72;2.53;;;28.60;93.80;;;;;;5070918;28;20702;-66
2022/08/06 12:45:31;;;;;;;2.90;2.80;;;28.70;92.10;;;;;;5070891;28;20198;-65
2022/08/06 12:48:01;;;;;;;2.80;2.60;;;28.40;92.10;;;;;;5071195;28;20666;-64
2022/08/06 12:50:27;;;;;;;2.60;2.40;;;27.90;90.70;;;;;;5071412;28;20182;-64
2022/08/06 12:53:08;;;;;;;2.50;2.40;;;27.30;90.90;;;;;;5070954;28;20180;-65
2022/08/06 12:55:55;;;;;;;2.92;2.70;;;26.60;89.70;;;;;;5070795;28;20190;-65
2022/08/06 12:58:30;;;;;;;2.72;2.58;;;26.10;92.40;;;;;;5070633;28;20197;-64
2022/08/06 13:00:58;;;;;;;2.72;2.53;;;25.40;93.40;;;;;;5071184;28;20169;-64
2022/08/06 13:03:25;;;;;;;3.17;2.97;;;25.30;92.10;;;;;;5070547;28;20201;-65
2022/08/06 13:05:53;;;;;;;2.80;2.70;;;25.10;92.70;;;;;;5070586;28;20198;-64
2022/08/06 13:08:20;;;;;;;3.33;3.13;;;25.10;92.70;;;;;;5071024;28;20620;-64
2022/08/06 13:10:55;;;;;;;2.80;2.70;;;25.50;94.70;;;;;;5070844;28;20178;-64